Time;durP1;ratioP1;P1;durP2;ratioP2;P2;SDS_P1;SDS_P2;PMS_P1;PMS_P2;Temp;Humidity;BMP_temperature;BMP_pressure;BME280_temperature;BME280_humidity;BME280_pressure;Samples;Min_cycle;Max_cycle;Signal;HPM_P1;HPM_P2
2022/01/18 00:00:19;;;;;;;;;;;22.60;30.30;;;;;;482508;247;2641;-44
2022/01/18 00:02:19;;;;;;;;;;;22.60;30.30;;;;;;482324;247;2304;-45
2022/01/18 00:04:20;;;;;;;;;;;22.60;30.30;;;;;;482715;247;1056;-44
2022/01/18 00:06:22;;;;;;;;;;;22.60;30.30;;;;;;482314;247;1176;-45
2022/01/18 00:08:23;;;;;;;;;;;22.60;30.30;;;;;;482592;247;1208;-45
2022/01/18 00:10:28;;;;;;;;;;;22.60;30.30;;;;;;482485;247;1195;-45
2022/01/18 00:12:44;;;;;;;;;;;22.60;30.30;;;;;;482438;247;2315;-45
2022/01/18 00:14:41;;;;;;;;;;;22.60;30.30;;;;;;481745;247;2269;-45
2022/01/18 00:17:00;;;;;;;;;;;22.60;30.30;;;;;;482520;247;2324;-45
2022/01/18 00:18:42;;;;;;;;;;;22.60;30.30;;;;;;480784;247;2197;-45
2022/01/18 00:20:54;;;;;;;;;;;22.60;30.30;;;;;;482653;247;1211;-45
2022/01/18 00:22:50;;;;;;;;;;;22.60;30.30;;;;;;481878;247;2183;-45
2022/01/18 00:24:52;;;;;;;;;;;22.60;30.30;;;;;;482353;247;1165;-45
2022/01/18 00:26:53;;;;;;;;;;;22.60;30.30;;;;;;482090;247;2296;-44
2022/01/18 00:28:57;;;;;;;;;;;22.60;30.30;;;;;;482225;247;1078;-45
2022/01/18 00:33:20;;;;;;;;;;;22.60;30.30;;;;;;482254;247;1077;-44
2022/01/18 00:35:16;;;;;;;;;;;22.60;30.30;;;;;;482279;247;2288;-45
2022/01/18 00:37:34;;;;;;;;;;;22.60;30.30;;;;;;482203;247;1124;-45
2022/01/18 00:39:29;;;;;;;;;;;22.70;30.30;;;;;;482225;247;2303;-45
2022/01/18 00:41:30;;;;;;;;;;;22.60;30.30;;;;;;482444;239;1501;-45
2022/01/18 00:43:32;;;;;;;;;;;22.70;30.30;;;;;;482208;247;1204;-45
2022/01/18 00:45:33;;;;;;;;;;;22.70;30.30;;;;;;482367;247;1144;-44
2022/01/18 00:47:34;;;;;;;;;;;22.70;30.30;;;;;;482378;247;1169;-44
2022/01/18 00:49:41;;;;;;;;;;;22.70;30.30;;;;;;482233;247;1039;-44
2022/01/18 00:51:39;;;;;;;;;;;22.70;30.30;;;;;;481799;247;2397;-44
2022/01/18 00:53:39;;;;;;;;;;;22.70;30.30;;;;;;482430;247;2300;-45
2022/01/18 00:55:50;;;;;;;;;;;22.70;30.30;;;;;;482609;247;1165;-45
2022/01/18 00:57:48;;;;;;;;;;;22.70;30.30;;;;;;481980;247;2920;-45
2022/01/18 00:59:50;;;;;;;;;;;22.70;30.30;;;;;;482471;247;2134;-45
2022/01/18 01:01:51;;;;;;;;;;;22.70;30.30;;;;;;482586;247;1273;-45
2022/01/18 01:03:54;;;;;;;;;;;22.70;30.30;;;;;;482676;247;1355;-45
2022/01/18 01:05:54;;;;;;;;;;;22.70;30.30;;;;;;482010;247;2304;-44
2022/01/18 01:07:55;;;;;;;;;;;22.70;30.30;;;;;;482566;247;1153;-45
2022/01/18 01:09:56;;;;;;;;;;;22.70;30.30;;;;;;482565;247;1232;-45
2022/01/18 01:11:58;;;;;;;;;;;22.70;30.30;;;;;;482231;247;1246;-44
2022/01/18 01:14:00;;;;;;;;;;;22.70;30.30;;;;;;482261;247;1235;-44
2022/01/18 01:16:11;;;;;;;;;;;22.70;30.30;;;;;;482186;247;2293;-45
2022/01/18 01:18:17;;;;;;;;;;;22.70;30.30;;;;;;481641;247;2419;-45
2022/01/18 01:34:33;;;;;;;;;;;22.80;30.30;;;;;;482299;247;1104;-44
2022/01/18 01:36:36;;;;;;;;;;;22.80;30.30;;;;;;481022;247;1721;-45
2022/01/18 01:43:22;;;;;;;;;;;22.80;30.30;;;;;;478400;247;1213;-44
2022/01/18 01:45:20;;;;;;;;;;;22.80;30.40;;;;;;482501;247;2180;-44
2022/01/18 01:47:32;;;;;;;;;;;22.80;30.30;;;;;;482640;247;1437;-45
2022/01/18 01:49:25;;;;;;;;;;;22.70;30.30;;;;;;481564;247;2043;-44
2022/01/18 01:51:29;;;;;;;;;;;22.80;30.40;;;;;;482022;247;2454;-45
2022/01/18 01:53:26;;;;;;;;;;;22.80;30.40;;;;;;482345;247;2287;-44
2022/01/18 01:55:28;;;;;;;;;;;22.80;30.30;;;;;;482251;247;1419;-44
2022/01/18 01:57:29;;;;;;;;;;;22.80;30.30;;;;;;482443;247;1331;-45
2022/01/18 01:59:30;;;;;;;;;;;22.80;30.40;;;;;;482247;247;2189;-44
2022/01/18 02:01:32;;;;;;;;;;;22.80;30.30;;;;;;482272;247;1343;-45
2022/01/18 02:03:33;;;;;;;;;;;22.80;30.30;;;;;;482547;247;1038;-45
2022/01/18 02:05:34;;;;;;;;;;;22.80;30.30;;;;;;482601;247;1567;-44
2022/01/18 02:07:36;;;;;;;;;;;22.80;30.30;;;;;;482236;247;1164;-45
2022/01/18 02:09:37;;;;;;;;;;;22.80;30.30;;;;;;482708;247;1063;-45
2022/01/18 02:11:38;;;;;;;;;;;22.80;30.30;;;;;;482288;247;1170;-45
2022/01/18 02:13:40;;;;;;;;;;;22.80;30.30;;;;;;482247;247;1245;-45
2022/01/18 02:15:47;;;;;;;;;;;22.80;30.30;;;;;;482659;239;1162;-44
2022/01/18 02:22:25;;;;;;;;;;;22.90;30.30;;;;;;472924;247;1167;-44
2022/01/18 02:24:26;;;;;;;;;;;22.80;30.30;;;;;;482280;247;1034;-44
2022/01/18 02:26:28;;;;;;;;;;;22.80;30.30;;;;;;482565;247;1272;-45
2022/01/18 02:28:29;;;;;;;;;;;22.80;30.30;;;;;;482326;247;1187;-45
2022/01/18 02:30:30;;;;;;;;;;;22.80;30.30;;;;;;482277;247;1357;-45
2022/01/18 02:32:32;;;;;;;;;;;22.80;30.30;;;;;;482165;247;1214;-44
2022/01/18 02:34:33;;;;;;;;;;;22.90;30.30;;;;;;482705;247;1081;-45
2022/01/18 02:36:34;;;;;;;;;;;22.80;30.30;;;;;;482600;247;1285;-45
2022/01/18 02:38:36;;;;;;;;;;;22.90;30.30;;;;;;482362;247;1245;-45
2022/01/18 02:40:37;;;;;;;;;;;22.90;30.30;;;;;;482267;247;2177;-45
2022/01/18 02:42:44;;;;;;;;;;;22.90;30.30;;;;;;482420;247;1221;-44
2022/01/18 02:44:42;;;;;;;;;;;22.80;30.30;;;;;;481971;247;2153;-44
2022/01/18 02:46:44;;;;;;;;;;;22.90;30.30;;;;;;482095;247;1153;-45
2022/01/18 02:48:45;;;;;;;;;;;22.90;30.30;;;;;;482234;247;1028;-45
2022/01/18 02:50:46;;;;;;;;;;;22.80;30.30;;;;;;482642;247;1267;-45
2022/01/18 02:52:48;;;;;;;;;;;22.90;30.30;;;;;;482435;247;1291;-45
2022/01/18 02:54:49;;;;;;;;;;;22.90;30.30;;;;;;482309;247;1289;-45
2022/01/18 02:56:53;;;;;;;;;;;22.80;30.30;;;;;;482349;247;1237;-45
2022/01/18 02:58:57;;;;;;;;;;;22.80;30.40;;;;;;482034;247;2350;-45
2022/01/18 03:03:14;;;;;;;;;;;22.60;30.80;;;;;;482217;247;1181;-45
2022/01/18 03:05:14;;;;;;;;;;;22.30;31.20;;;;;;482516;247;2388;-44
2022/01/18 03:07:15;;;;;;;;;;;22.20;31.40;;;;;;482363;247;1203;-45
2022/01/18 03:09:17;;;;;;;;;;;22.10;31.60;;;;;;482696;247;1416;-45
2022/01/18 03:11:18;;;;;;;;;;;21.90;31.80;;;;;;482395;247;1189;-45
2022/01/18 03:13:19;;;;;;;;;;;21.90;31.80;;;;;;482403;247;1159;-44
2022/01/18 03:15:21;;;;;;;;;;;21.90;32.00;;;;;;482716;247;973;-45
2022/01/18 03:17:22;;;;;;;;;;;21.70;32.00;;;;;;482284;247;1334;-44
2022/01/18 03:19:23;;;;;;;;;;;21.70;32.20;;;;;;482257;247;1200;-44
2022/01/18 03:21:25;;;;;;;;;;;21.60;32.20;;;;;;482227;240;2130;-44
2022/01/18 03:23:26;;;;;;;;;;;21.60;32.30;;;;;;482658;247;1301;-44
2022/01/18 03:25:39;;;;;;;;;;;21.60;32.40;;;;;;482426;247;1058;-44
2022/01/18 03:29:49;;;;;;;;;;;21.50;32.50;;;;;;482220;247;1072;-44
2022/01/18 03:31:50;;;;;;;;;;;21.50;32.50;;;;;;482442;247;1387;-45
2022/01/18 03:33:51;;;;;;;;;;;21.50;32.60;;;;;;482433;247;1071;-45
2022/01/18 03:35:53;;;;;;;;;;;21.40;32.50;;;;;;482183;247;1242;-45
2022/01/18 03:37:54;;;;;;;;;;;21.40;32.60;;;;;;482138;247;1592;-44
2022/01/18 03:39:55;;;;;;;;;;;21.40;32.70;;;;;;482627;247;2130;-44
2022/01/18 03:42:15;;;;;;;;;;;21.40;32.70;;;;;;482537;247;1321;-44
2022/01/18 03:43:58;;;;;;;;;;;21.40;32.80;;;;;;480905;247;2429;-44
2022/01/18 03:46:02;;;;;;;;;;;21.40;32.80;;;;;;482447;247;1326;-44
2022/01/18 03:48:04;;;;;;;;;;;21.30;32.70;;;;;;482185;247;2048;-44
2022/01/18 03:50:03;;;;;;;;;;;21.30;32.70;;;;;;482169;247;2360;-45
2022/01/18 03:52:04;;;;;;;;;;;21.30;32.70;;;;;;482148;247;1203;-44
2022/01/18 03:54:06;;;;;;;;;;;21.30;32.80;;;;;;482414;247;1159;-44
2022/01/18 03:56:07;;;;;;;;;;;21.20;32.80;;;;;;482198;247;1226;-44
2022/01/18 03:58:08;;;;;;;;;;;21.20;32.80;;;;;;482223;247;1500;-44
2022/01/18 04:00:09;;;;;;;;;;;21.20;32.90;;;;;;482430;247;2126;-44
2022/01/18 04:02:11;;;;;;;;;;;21.20;32.90;;;;;;482150;247;1582;-44
2022/01/18 04:04:12;;;;;;;;;;;21.20;33.00;;;;;;482580;247;1191;-45
2022/01/18 04:06:13;;;;;;;;;;;21.20;32.90;;;;;;482348;239;1192;-44
2022/01/18 04:08:15;;;;;;;;;;;21.10;32.90;;;;;;482191;247;1313;-44
2022/01/18 04:10:16;;;;;;;;;;;21.10;32.90;;;;;;482529;247;1016;-44
2022/01/18 04:12:17;;;;;;;;;;;21.20;32.90;;;;;;482267;247;1310;-44
2022/01/18 04:14:19;;;;;;;;;;;21.10;32.90;;;;;;482259;247;1221;-45
2022/01/18 04:16:20;;;;;;;;;;;21.20;33.00;;;;;;482534;247;1670;-44
2022/01/18 04:18:29;;;;;;;;;;;21.20;33.00;;;;;;482670;247;1013;-44
2022/01/18 04:27:23;;;;;;;;;;;21.10;33.10;;;;;;482426;247;1161;-44
2022/01/18 04:29:24;;;;;;;;;;;21.10;33.10;;;;;;482387;247;1249;-44
2022/01/18 04:31:25;;;;;;;;;;;21.10;33.10;;;;;;482593;247;1270;-44
2022/01/18 04:33:27;;;;;;;;;;;21.00;33.10;;;;;;482690;247;1195;-45
2022/01/18 04:35:28;;;;;;;;;;;21.00;33.10;;;;;;482674;247;1129;-45
2022/01/18 04:37:29;;;;;;;;;;;21.00;33.10;;;;;;482154;247;1290;-44
2022/01/18 04:39:36;;;;;;;;;;;21.00;33.10;;;;;;482368;247;1055;-44
2022/01/18 04:41:34;;;;;;;;;;;20.90;33.20;;;;;;481820;247;2300;-44
2022/01/18 04:43:47;;;;;;;;;;;21.00;33.20;;;;;;482080;247;2388;-44
2022/01/18 04:50:20;;;;;;;;;;;20.90;33.10;;;;;;482334;247;1203;-44
2022/01/18 04:52:21;;;;;;;;;;;21.00;33.20;;;;;;482210;247;1186;-45
2022/01/18 04:54:29;;;;;;;;;;;21.00;33.10;;;;;;482222;247;1200;-44
2022/01/18 04:56:29;;;;;;;;;;;21.00;33.10;;;;;;481796;247;2252;-44
2022/01/18 04:58:28;;;;;;;;;;;21.00;33.10;;;;;;482499;247;2483;-44
2022/01/18 05:00:30;;;;;;;;;;;21.00;33.10;;;;;;482389;247;2134;-45
2022/01/18 05:02:31;;;;;;;;;;;21.00;33.20;;;;;;482281;247;1530;-44
2022/01/18 05:04:32;;;;;;;;;;;20.90;33.20;;;;;;482235;247;1437;-45
2022/01/18 05:06:34;;;;;;;;;;;21.00;33.20;;;;;;482331;247;1037;-44
2022/01/18 05:08:35;;;;;;;;;;;20.90;33.20;;;;;;482181;247;1284;-44
2022/01/18 05:10:36;;;;;;;;;;;20.90;33.20;;;;;;482277;247;1360;-44
2022/01/18 05:12:44;;;;;;;;;;;20.90;33.20;;;;;;482206;247;1162;-44
2022/01/18 05:14:40;;;;;;;;;;;20.90;33.20;;;;;;481899;247;2279;-45
2022/01/18 05:16:57;;;;;;;;;;;20.90;33.20;;;;;;482058;247;2308;-44
2022/01/18 05:19:03;;;;;;;;;;;20.90;33.20;;;;;;482283;247;2162;-44
2022/01/18 05:21:23;;;;;;;;;;;20.90;33.20;;;;;;481990;240;2283;-45
2022/01/18 05:23:20;;;;;;;;;;;20.90;33.20;;;;;;481784;247;2212;-45
2022/01/18 05:25:21;;;;;;;;;;;20.90;33.20;;;;;;482590;247;2293;-44
2022/01/18 05:27:23;;;;;;;;;;;20.90;33.30;;;;;;482230;247;1178;-44
2022/01/18 05:29:24;;;;;;;;;;;20.80;33.20;;;;;;482339;247;1183;-44
2022/01/18 05:31:25;;;;;;;;;;;20.90;33.30;;;;;;482296;247;1324;-44
2022/01/18 05:33:27;;;;;;;;;;;20.80;33.20;;;;;;482081;247;1227;-44
2022/01/18 05:35:28;;;;;;;;;;;20.90;33.20;;;;;;482035;247;1313;-44
2022/01/18 05:37:29;;;;;;;;;;;20.90;33.20;;;;;;482060;247;1191;-44
2022/01/18 05:39:31;;;;;;;;;;;20.90;33.20;;;;;;481943;247;1279;-44
2022/01/18 05:41:32;;;;;;;;;;;20.80;33.20;;;;;;482000;247;2200;-44
2022/01/18 05:43:33;;;;;;;;;;;20.90;33.30;;;;;;481996;247;1254;-44
2022/01/18 05:45:35;;;;;;;;;;;20.90;33.30;;;;;;482135;247;1209;-44
2022/01/18 05:47:36;;;;;;;;;;;20.90;33.30;;;;;;482012;247;1541;-44
2022/01/18 05:49:37;;;;;;;;;;;20.90;33.30;;;;;;482107;247;1198;-44
2022/01/18 05:51:41;;;;;;;;;;;20.90;33.30;;;;;;482459;247;1276;-44
2022/01/18 05:53:41;;;;;;;;;;;20.80;33.30;;;;;;482084;247;1599;-44
2022/01/18 05:55:41;;;;;;;;;;;20.80;33.30;;;;;;482001;247;2201;-44
2022/01/18 05:57:42;;;;;;;;;;;20.80;33.30;;;;;;482008;247;1210;-45
2022/01/18 05:59:46;;;;;;;;;;;20.80;33.30;;;;;;482076;247;1236;-44
2022/01/18 06:01:48;;;;;;;;;;;20.80;33.30;;;;;;481819;247;2197;-44
2022/01/18 06:04:05;;;;;;;;;;;20.80;33.30;;;;;;482050;247;1317;-43
2022/01/18 06:08:13;;;;;;;;;;;20.80;33.30;;;;;;482370;247;1093;-44
2022/01/18 06:10:14;;;;;;;;;;;20.80;33.30;;;;;;482003;247;1058;-44
2022/01/18 06:12:15;;;;;;;;;;;20.80;33.20;;;;;;482080;247;1237;-44
2022/01/18 06:14:17;;;;;;;;;;;20.70;33.30;;;;;;482370;247;1242;-45
2022/01/18 06:16:18;;;;;;;;;;;20.80;33.40;;;;;;482291;239;1263;-44
2022/01/18 06:18:19;;;;;;;;;;;20.70;33.40;;;;;;481898;247;1221;-44
2022/01/18 06:20:21;;;;;;;;;;;20.70;33.40;;;;;;481993;247;1374;-45
2022/01/18 06:22:22;;;;;;;;;;;20.80;33.40;;;;;;481901;247;2110;-44
2022/01/18 06:24:23;;;;;;;;;;;20.70;33.40;;;;;;482151;247;1057;-44
2022/01/18 06:26:24;;;;;;;;;;;20.70;33.40;;;;;;481749;247;1258;-44
2022/01/18 06:28:26;;;;;;;;;;;20.70;33.30;;;;;;481967;247;1141;-44
2022/01/18 06:30:27;;;;;;;;;;;20.70;33.40;;;;;;481853;247;1362;-44
2022/01/18 06:32:28;;;;;;;;;;;20.70;33.40;;;;;;482029;247;1189;-44
2022/01/18 06:34:30;;;;;;;;;;;20.70;33.40;;;;;;481954;247;1205;-44
2022/01/18 06:36:31;;;;;;;;;;;20.70;33.40;;;;;;481773;247;1143;-44
2022/01/18 06:38:33;;;;;;;;;;;20.70;33.40;;;;;;481962;247;1072;-44
2022/01/18 06:40:34;;;;;;;;;;;20.60;33.40;;;;;;481853;247;1194;-44
2022/01/18 06:42:35;;;;;;;;;;;20.70;33.50;;;;;;481809;247;2209;-44
2022/01/18 06:44:37;;;;;;;;;;;20.70;33.50;;;;;;481936;247;1261;-44
2022/01/18 06:46:38;;;;;;;;;;;20.70;33.50;;;;;;481929;247;1419;-44
2022/01/18 06:48:39;;;;;;;;;;;20.70;33.40;;;;;;481869;247;1398;-45
2022/01/18 06:50:41;;;;;;;;;;;20.60;33.50;;;;;;481977;247;1336;-44
2022/01/18 06:52:42;;;;;;;;;;;20.70;33.40;;;;;;481713;247;1078;-44
2022/01/18 06:54:43;;;;;;;;;;;20.70;33.40;;;;;;482043;247;1148;-44
2022/01/18 06:56:47;;;;;;;;;;;20.70;33.30;;;;;;481852;247;1333;-44
2022/01/18 06:58:46;;;;;;;;;;;20.70;33.40;;;;;;481680;247;1901;-44
2022/01/18 07:00:47;;;;;;;;;;;20.70;33.40;;;;;;481952;247;1212;-44
2022/01/18 07:02:49;;;;;;;;;;;20.70;33.40;;;;;;481795;247;2192;-44
2022/01/18 07:04:50;;;;;;;;;;;20.70;33.40;;;;;;481832;247;1099;-44
2022/01/18 07:06:51;;;;;;;;;;;20.70;33.40;;;;;;481696;247;1288;-44
2022/01/18 07:08:53;;;;;;;;;;;20.70;33.50;;;;;;482013;247;1168;-44
2022/01/18 07:10:54;;;;;;;;;;;20.60;33.40;;;;;;481689;247;1591;-44
2022/01/18 07:12:57;;;;;;;;;;;20.60;33.40;;;;;;481849;247;1198;-44
2022/01/18 07:14:57;;;;;;;;;;;20.60;33.40;;;;;;481593;247;2344;-44
2022/01/18 07:16:58;;;;;;;;;;;20.70;33.50;;;;;;481668;239;1393;-43
2022/01/18 07:18:59;;;;;;;;;;;20.60;33.40;;;;;;481860;247;1029;-44
2022/01/18 07:21:01;;;;;;;;;;;20.60;33.40;;;;;;482065;247;1229;-44
2022/01/18 07:23:02;;;;;;;;;;;20.70;33.40;;;;;;481650;247;2105;-44
2022/01/18 07:25:10;;;;;;;;;;;20.70;33.40;;;;;;481601;247;1082;-44
2022/01/18 07:27:05;;;;;;;;;;;20.60;33.40;;;;;;481102;247;2303;-44
2022/01/18 07:29:06;;;;;;;;;;;20.60;33.30;;;;;;481707;247;1089;-44
2022/01/18 07:31:08;;;;;;;;;;;20.60;33.40;;;;;;481482;247;1517;-44
2022/01/18 07:33:09;;;;;;;;;;;20.60;33.40;;;;;;481581;247;1102;-44
2022/01/18 07:35:12;;;;;;;;;;;20.60;33.30;;;;;;481736;247;1278;-44
2022/01/18 07:37:12;;;;;;;;;;;20.60;33.30;;;;;;481309;247;2710;-44
2022/01/18 07:39:13;;;;;;;;;;;20.60;33.40;;;;;;481826;247;1291;-44
2022/01/18 07:41:14;;;;;;;;;;;20.60;33.40;;;;;;481652;247;2180;-44
2022/01/18 07:43:17;;;;;;;;;;;20.60;33.40;;;;;;481561;247;1345;-44
2022/01/18 07:45:17;;;;;;;;;;;20.60;33.40;;;;;;481736;247;2364;-44
2022/01/18 07:47:18;;;;;;;;;;;20.70;33.40;;;;;;481593;247;1181;-44
2022/01/18 07:49:20;;;;;;;;;;;20.60;33.30;;;;;;481646;247;1214;-43
2022/01/18 07:51:21;;;;;;;;;;;20.60;33.30;;;;;;481724;247;1339;-44
2022/01/18 07:53:22;;;;;;;;;;;20.60;33.30;;;;;;481665;247;1215;-44
2022/01/18 07:55:24;;;;;;;;;;;20.60;33.30;;;;;;481558;247;1214;-44
2022/01/18 07:57:25;;;;;;;;;;;20.70;33.30;;;;;;481395;247;1245;-44
2022/01/18 07:59:27;;;;;;;;;;;20.70;33.30;;;;;;481641;247;1121;-44
2022/01/18 08:01:28;;;;;;;;;;;20.60;33.30;;;;;;481406;247;2209;-44
2022/01/18 08:03:29;;;;;;;;;;;20.60;33.30;;;;;;481443;247;1108;-44
2022/01/18 08:05:30;;;;;;;;;;;20.70;33.30;;;;;;481472;247;1115;-44
2022/01/18 08:07:32;;;;;;;;;;;20.60;33.20;;;;;;481451;247;1196;-44
2022/01/18 08:09:33;;;;;;;;;;;20.60;33.30;;;;;;481481;247;1072;-44
2022/01/18 08:11:34;;;;;;;;;;;20.60;33.30;;;;;;481575;247;1345;-44
2022/01/18 08:13:39;;;;;;;;;;;20.70;33.30;;;;;;481536;247;1117;-44
2022/01/18 08:15:39;;;;;;;;;;;20.70;33.20;;;;;;481378;247;2303;-44
2022/01/18 08:17:40;;;;;;;;;;;20.70;33.20;;;;;;481633;247;2041;-44
2022/01/18 08:19:41;;;;;;;;;;;20.70;33.20;;;;;;481539;247;1069;-44
2022/01/18 08:21:42;;;;;;;;;;;20.70;33.10;;;;;;481561;247;2181;-44
2022/01/18 08:23:44;;;;;;;;;;;20.70;33.10;;;;;;481707;247;1074;-44
2022/01/18 08:25:45;;;;;;;;;;;20.70;33.10;;;;;;481590;247;1373;-44
2022/01/18 08:27:46;;;;;;;;;;;20.70;33.20;;;;;;481463;247;1183;-44
2022/01/18 08:29:48;;;;;;;;;;;20.70;33.20;;;;;;481547;247;1082;-44
2022/01/18 08:31:49;;;;;;;;;;;20.70;33.10;;;;;;481507;247;1321;-44
2022/01/18 08:33:50;;;;;;;;;;;20.70;33.10;;;;;;481566;247;1258;-44
2022/01/18 08:35:52;;;;;;;;;;;20.70;33.10;;;;;;481546;247;1230;-44
2022/01/18 08:37:53;;;;;;;;;;;20.70;33.10;;;;;;481580;247;1643;-44
2022/01/18 08:39:54;;;;;;;;;;;20.80;33.10;;;;;;481478;247;1145;-44
2022/01/18 08:41:56;;;;;;;;;;;20.70;33.10;;;;;;481348;247;2145;-44
2022/01/18 08:43:57;;;;;;;;;;;20.70;33.10;;;;;;481612;247;1191;-44
2022/01/18 08:45:58;;;;;;;;;;;20.70;33.10;;;;;;481531;247;1254;-44
2022/01/18 08:48:00;;;;;;;;;;;20.70;33.10;;;;;;481987;247;1319;-43
2022/01/18 08:50:01;;;;;;;;;;;20.70;33.10;;;;;;481473;247;1134;-43
2022/01/18 08:52:02;;;;;;;;;;;20.70;33.10;;;;;;481397;247;1226;-44
2022/01/18 08:54:04;;;;;;;;;;;20.70;33.10;;;;;;481292;247;1156;-44
2022/01/18 08:56:05;;;;;;;;;;;20.70;33.10;;;;;;481474;247;1196;-44
2022/01/18 08:58:08;;;;;;;;;;;20.70;33.00;;;;;;481796;247;1248;-44
2022/01/18 09:00:09;;;;;;;;;;;20.70;33.10;;;;;;481392;247;2247;-44
2022/01/18 09:02:09;;;;;;;;;;;20.70;33.00;;;;;;481275;247;2152;-45
2022/01/18 09:04:10;;;;;;;;;;;20.70;33.00;;;;;;481397;247;1137;-43
2022/01/18 09:06:13;;;;;;;;;;;20.70;33.00;;;;;;481446;247;1446;-44
2022/01/18 09:08:14;;;;;;;;;;;20.70;33.00;;;;;;481319;247;2285;-43
2022/01/18 09:10:15;;;;;;;;;;;20.70;33.00;;;;;;481533;247;1079;-44
2022/01/18 09:12:17;;;;;;;;;;;20.70;33.00;;;;;;481336;247;1191;-44
2022/01/18 09:14:18;;;;;;;;;;;20.70;33.00;;;;;;481435;247;2068;-43
2022/01/18 09:16:19;;;;;;;;;;;20.70;33.00;;;;;;481299;247;1311;-44
2022/01/18 09:18:20;;;;;;;;;;;20.70;32.90;;;;;;481370;247;1261;-44
2022/01/18 09:20:24;;;;;;;;;;;20.70;32.90;;;;;;481228;247;1274;-44
2022/01/18 09:22:23;;;;;;;;;;;20.70;33.00;;;;;;481620;247;2181;-44
2022/01/18 09:24:24;;;;;;;;;;;20.80;33.00;;;;;;481660;247;1121;-44
2022/01/18 09:26:26;;;;;;;;;;;20.70;33.00;;;;;;481516;247;1257;-44
2022/01/18 09:28:27;;;;;;;;;;;20.80;33.00;;;;;;482237;247;1096;-44
2022/01/18 09:30:28;;;;;;;;;;;20.80;32.90;;;;;;481909;247;1041;-44
2022/01/18 09:32:30;;;;;;;;;;;20.80;33.00;;;;;;481287;247;1170;-44
2022/01/18 09:34:31;;;;;;;;;;;20.70;32.90;;;;;;481466;247;1078;-43
2022/01/18 09:36:33;;;;;;;;;;;20.80;33.00;;;;;;481644;247;1301;-44
2022/01/18 09:38:34;;;;;;;;;;;20.80;32.90;;;;;;481561;247;1109;-44
2022/01/18 09:40:38;;;;;;;;;;;20.80;32.90;;;;;;481513;247;1231;-44
2022/01/18 09:42:40;;;;;;;;;;;20.80;32.90;;;;;;481622;247;2201;-44
2022/01/18 09:44:39;;;;;;;;;;;20.80;32.80;;;;;;481115;247;2229;-44
2022/01/18 09:46:40;;;;;;;;;;;20.80;32.90;;;;;;481458;247;1312;-44
2022/01/18 09:48:41;;;;;;;;;;;20.80;32.80;;;;;;481733;247;1052;-44
2022/01/18 09:50:42;;;;;;;;;;;20.80;32.80;;;;;;481423;247;1162;-43
2022/01/18 09:52:47;;;;;;;;;;;20.80;32.80;;;;;;482102;247;1199;-43
2022/01/18 09:54:45;;;;;;;;;;;20.80;32.80;;;;;;481989;247;2086;-44
2022/01/18 09:56:46;;;;;;;;;;;20.80;32.90;;;;;;481642;247;1175;-44
2022/01/18 09:58:48;;;;;;;;;;;20.80;32.90;;;;;;481556;247;1116;-44
2022/01/18 10:00:50;;;;;;;;;;;20.80;32.80;;;;;;481458;240;1345;-44
2022/01/18 10:02:50;;;;;;;;;;;20.80;32.80;;;;;;481479;247;2141;-43
2022/01/18 10:04:54;;;;;;;;;;;20.80;32.80;;;;;;481459;247;1167;-43
2022/01/18 10:06:54;;;;;;;;;;;20.90;32.80;;;;;;481318;247;1576;-44
2022/01/18 10:08:54;;;;;;;;;;;20.80;32.80;;;;;;481423;247;1267;-44
2022/01/18 10:10:56;;;;;;;;;;;20.80;32.80;;;;;;481608;247;1333;-44
2022/01/18 10:12:57;;;;;;;;;;;20.80;32.80;;;;;;481342;247;1182;-44
2022/01/18 10:14:59;;;;;;;;;;;20.80;32.70;;;;;;481363;247;1240;-44
2022/01/18 10:17:00;;;;;;;;;;;20.90;32.70;;;;;;481375;239;1376;-44
2022/01/18 10:19:02;;;;;;;;;;;20.90;32.80;;;;;;481477;247;1296;-44
2022/01/18 10:21:05;;;;;;;;;;;20.90;32.80;;;;;;481585;247;1233;-44
2022/01/18 10:23:05;;;;;;;;;;;20.80;32.70;;;;;;481179;247;2281;-43
2022/01/18 10:25:06;;;;;;;;;;;20.80;32.70;;;;;;481486;247;1327;-44
2022/01/18 10:27:07;;;;;;;;;;;20.80;32.70;;;;;;481641;247;1221;-44
2022/01/18 10:29:08;;;;;;;;;;;20.80;32.70;;;;;;481737;247;1081;-43
2022/01/18 10:31:09;;;;;;;;;;;20.80;32.70;;;;;;481504;247;1170;-44
2022/01/18 10:33:13;;;;;;;;;;;20.90;32.80;;;;;;481489;247;1219;-44
2022/01/18 10:35:12;;;;;;;;;;;20.80;32.70;;;;;;481374;247;2025;-44
2022/01/18 10:37:13;;;;;;;;;;;20.80;32.70;;;;;;481640;246;1459;-44
2022/01/18 10:39:15;;;;;;;;;;;20.80;32.70;;;;;;482230;247;1269;-44
2022/01/18 10:41:16;;;;;;;;;;;20.80;32.70;;;;;;481616;247;1342;-44
2022/01/18 10:43:17;;;;;;;;;;;20.90;32.70;;;;;;481538;247;2186;-44
2022/01/18 10:45:21;;;;;;;;;;;20.80;32.60;;;;;;481583;247;1357;-43
2022/01/18 10:47:20;;;;;;;;;;;20.80;32.60;;;;;;481172;247;2237;-44
2022/01/18 10:49:21;;;;;;;;;;;20.90;32.80;;;;;;481679;247;1151;-43
2022/01/18 10:51:23;;;;;;;;;;;20.90;32.70;;;;;;481381;247;1290;-43
2022/01/18 10:53:25;;;;;;;;;;;20.80;32.70;;;;;;481386;247;1253;-43
2022/01/18 10:55:25;;;;;;;;;;;20.80;32.70;;;;;;481331;247;2068;-44
2022/01/18 10:57:27;;;;;;;;;;;20.80;32.60;;;;;;481086;247;1296;-44
2022/01/18 10:59:29;;;;;;;;;;;20.90;32.70;;;;;;481245;247;1249;-44
2022/01/18 11:01:30;;;;;;;;;;;20.90;32.70;;;;;;481395;247;2214;-44
2022/01/18 11:03:32;;;;;;;;;;;20.90;32.60;;;;;;481444;247;2204;-44
2022/01/18 11:05:32;;;;;;;;;;;20.90;32.60;;;;;;481360;247;1943;-44
2022/01/18 11:07:33;;;;;;;;;;;20.80;32.60;;;;;;481461;247;1236;-44
2022/01/18 11:09:35;;;;;;;;;;;20.80;32.60;;;;;;481416;247;1186;-44
2022/01/18 11:11:36;;;;;;;;;;;20.80;32.60;;;;;;481381;247;1484;-43
2022/01/18 11:13:44;;;;;;;;;;;20.90;32.60;;;;;;481291;247;1228;-43
2022/01/18 11:15:40;;;;;;;;;;;20.80;32.50;;;;;;480852;247;2338;-43
2022/01/18 11:17:43;;;;;;;;;;;20.90;32.60;;;;;;481888;247;2239;-43
2022/01/18 11:19:42;;;;;;;;;;;20.80;32.70;;;;;;481311;247;2122;-44
2022/01/18 11:21:43;;;;;;;;;;;20.80;32.60;;;;;;481403;247;1158;-43
2022/01/18 11:23:44;;;;;;;;;;;20.90;32.60;;;;;;481437;247;2212;-43
2022/01/18 11:25:46;;;;;;;;;;;20.80;32.60;;;;;;481413;247;1375;-43
2022/01/18 11:27:49;;;;;;;;;;;20.80;32.50;;;;;;481330;247;1097;-44
2022/01/18 11:29:48;;;;;;;;;;;20.80;32.50;;;;;;481208;247;2314;-44
2022/01/18 11:31:50;;;;;;;;;;;20.80;32.50;;;;;;481362;247;1252;-43
2022/01/18 11:33:51;;;;;;;;;;;20.90;32.50;;;;;;481486;247;1229;-43
2022/01/18 11:35:53;;;;;;;;;;;20.90;32.50;;;;;;481240;247;1482;-43
2022/01/18 11:37:54;;;;;;;;;;;20.90;32.40;;;;;;481702;247;2030;-44
2022/01/18 11:39:55;;;;;;;;;;;20.90;32.40;;;;;;482105;247;1167;-46
2022/01/18 11:41:56;;;;;;;;;;;20.90;32.50;;;;;;481514;247;1347;-44
2022/01/18 11:43:59;;;;;;;;;;;20.90;32.50;;;;;;481750;247;2193;-43
2022/01/18 11:45:59;;;;;;;;;;;20.80;32.40;;;;;;481287;239;2019;-46
2022/01/18 11:48:00;;;;;;;;;;;20.90;32.50;;;;;;481679;247;1307;-43
2022/01/18 11:50:03;;;;;;;;;;;20.90;32.40;;;;;;481367;247;1043;-44
2022/01/18 11:52:05;;;;;;;;;;;20.90;32.40;;;;;;481631;247;2286;-43
2022/01/18 11:54:17;;;;;;;;;;;20.90;32.50;;;;;;481375;247;2300;-43
2022/01/18 11:56:11;;;;;;;;;;;20.90;32.40;;;;;;480696;247;2440;-43
2022/01/18 11:58:09;;;;;;;;;;;20.80;32.40;;;;;;481260;247;2138;-43
2022/01/18 12:00:10;;;;;;;;;;;20.90;32.40;;;;;;481386;247;1197;-43
2022/01/18 12:02:14;;;;;;;;;;;20.90;32.40;;;;;;481321;247;1238;-44
2022/01/18 12:04:13;;;;;;;;;;;20.90;32.40;;;;;;481440;247;2320;-44
2022/01/18 12:06:15;;;;;;;;;;;20.90;32.40;;;;;;481247;247;1432;-43
2022/01/18 12:08:16;;;;;;;;;;;20.90;32.40;;;;;;481227;247;1246;-44
2022/01/18 12:10:17;;;;;;;;;;;20.90;32.40;;;;;;481374;247;1079;-44
2022/01/18 12:12:19;;;;;;;;;;;20.90;32.30;;;;;;481468;247;1165;-44
2022/01/18 12:14:20;;;;;;;;;;;20.80;32.30;;;;;;481407;247;1245;-43
2022/01/18 12:16:21;;;;;;;;;;;20.80;32.20;;;;;;481449;240;1278;-44
2022/01/18 12:18:23;;;;;;;;;;;20.90;32.30;;;;;;481441;247;1279;-43
2022/01/18 12:20:24;;;;;;;;;;;20.90;32.30;;;;;;481572;247;1042;-44
2022/01/18 12:22:25;;;;;;;;;;;20.90;32.20;;;;;;481852;247;1224;-43
2022/01/18 12:24:27;;;;;;;;;;;20.90;32.30;;;;;;481398;247;2121;-44
2022/01/18 12:26:31;;;;;;;;;;;20.90;32.20;;;;;;481563;240;1294;-44
2022/01/18 12:28:32;;;;;;;;;;;20.90;32.20;;;;;;482023;247;2013;-44
2022/01/18 12:30:40;;;;;;;;;;;20.90;32.20;;;;;;481474;247;2039;-44
2022/01/18 12:32:56;;;;;;;;;;;20.90;32.20;;;;;;481201;247;2263;-44
2022/01/18 12:34:54;;;;;;;;;;;20.90;32.20;;;;;;480964;247;1988;-44
2022/01/18 12:36:53;;;;;;;;;;;20.90;32.10;;;;;;481385;247;2086;-44
2022/01/18 12:38:55;;;;;;;;;;;20.90;32.10;;;;;;481794;247;1083;-44
2022/01/18 12:40:56;;;;;;;;;;;20.90;32.10;;;;;;481529;247;1266;-44
2022/01/18 12:45:19;;;;;;;;;;;20.90;32.00;;;;;;481619;247;1371;-44